WetterOnline ( http://www.wetteronline.de )

Wetter aktuell Frankfurt (Oder)

Aktuelles Wetter: Manschnow (16m)

6-stündlich | Neueste Meldungen
Ortszeit Temperatur Wetter
Di, 21.08. 8:00 17.1° C bewölkt
Di, 21.08. 2:00 19.0° C bewölkt
Mo, 20.08. 20:00 22.8° C bedeckt
Mo, 20.08. 14:00 24.3° C bedeckt
Mo, 20.08. 8:00 19.2° C wolkig
Mo, 20.08. 2:00 15.0° C leicht bewölkt
So, 19.08. 20:00 26.5° C wolkig
So, 19.08. 14:00 28.4° C fast wolkenlos
Ortszeit Temperatur Wetter
Di, 21.08. 12:30 22.0° C leicht bewölkt
Di, 21.08. 12:20 22.0° C leicht bewölkt
Di, 21.08. 12:10 21.7° C leicht bewölkt
Di, 21.08. 12:00 20.4° C bewölkt
Di, 21.08. 11:50 20.4° C bewölkt
Di, 21.08. 11:40 21.0° C bewölkt
Di, 21.08. 11:30 20.0° C bewölkt
Di, 21.08. 11:00 20.7° C bewölkt
Di, 21.08. 10:30 19.3° C bewölkt
Di, 21.08. 10:00 19.3° C leicht bewölkt
Di, 21.08. 9:30 19.2° C wolkenlos
Ortszeit Relative Feuchte Sichtweite
Di, 21.08. 8:00 73% 30 km
Di, 21.08. 2:00 69% 35 km
Mo, 20.08. 20:00 61% 35 km
Mo, 20.08. 14:00 49% 35 km
Mo, 20.08. 8:00 64% 19 km
Mo, 20.08. 2:00 84% 17 km
So, 19.08. 20:00 38% 28 km
So, 19.08. 14:00 33% 24 km
Ortszeit Relative Feuchte Sichtweite
Di, 21.08. 12:30 44% 27 km
Di, 21.08. 12:20 44% -
Di, 21.08. 12:10 45% -
Di, 21.08. 12:00 51% 35 km
Di, 21.08. 11:50 51% -
Di, 21.08. 11:40 50% -
Di, 21.08. 11:30 50% 35 km
Di, 21.08. 11:00 53% 35 km
Di, 21.08. 10:30 58% 30 km
Di, 21.08. 10:00 59% 28 km
Di, 21.08. 9:30 61% 30 km
Ortszeit Niederschlagsmenge Niederschlagsart
Di, 21.08. 8:00 0.0 l/m2 in 12 Std. -
Di, 21.08. 2:00 0.0 l/m2 in 6 Std. -
Mo, 20.08. 20:00 0.1 l/m2 in 12 Std. Regen
Mo, 20.08. 14:00 0.0 l/m2 in 6 Std. -
Mo, 20.08. 8:00 0.0 l/m2 in 12 Std. -
Mo, 20.08. 2:00 0.0 l/m2 in 6 Std. -
So, 19.08. 20:00 0.0 l/m2 in 12 Std. -
So, 19.08. 14:00 0.0 l/m2 in 6 Std. -
Ortszeit Niederschlagsmenge Niederschlagsart
Di, 21.08. 12:30 0.0 l/m2 in 1 Std. -
Di, 21.08. 12:20 keine Meldung -
Di, 21.08. 12:10 keine Meldung -
Di, 21.08. 12:00 0.0 l/m2 in 1 Std. -
Di, 21.08. 11:50 keine Meldung -
Di, 21.08. 11:40 keine Meldung -
Di, 21.08. 11:30 0.0 l/m2 in 1 Std. -
Di, 21.08. 11:00 0.0 l/m2 in 1 Std. -
Di, 21.08. 10:30 0.0 l/m2 in 1 Std. -
Di, 21.08. 10:00 0.0 l/m2 in 1 Std. -
Di, 21.08. 9:30 0.0 l/m2 in 1 Std. -
Ortszeit Stärke Spitze Richtung
km/h Bft. km/h Grad Sektor
Di, 21.08. 8:00 9 2 19 310° NW
Di, 21.08. 2:00 7 2 25 360° N
Mo, 20.08. 20:00 11 2 40 260° W
Mo, 20.08. 14:00 18 3 36 270° W
Mo, 20.08. 8:00 4 1 14 230° SW
Mo, 20.08. 2:00 0 0 7 - -
So, 19.08. 20:00 4 1 29 50° NO
So, 19.08. 14:00 9 2 26 260° W
Ortszeit Stärke Spitze Richtung
km/h Bft. km/h Grad Sektor
Di, 21.08. 12:30 13 3 24 270° W
Di, 21.08. 12:20 13 3 - 270° W
Di, 21.08. 12:10 13 3 - 300° NW
Di, 21.08. 12:00 9 2 24 310° NW
Di, 21.08. 11:50 9 2 - 310° NW
Di, 21.08. 11:40 11 2 - 300° NW
Di, 21.08. 11:30 11 2 22 310° NW
Di, 21.08. 11:00 11 2 24 300° NW
Di, 21.08. 10:30 7 2 18 320° NW
Di, 21.08. 10:00 7 2 19 320° NW
Di, 21.08. 9:30 6 1 15 330° NW
Ortszeit Untergrenze Bedeckung Gattung
total tief tief mittel hoch
Di, 21.08. 8:00 840 m 7/8 7/8 - - -
Di, 21.08. 2:00 900 m 7/8 7/8 - - -
Mo, 20.08. 20:00 2100 m 8/8 8/8 - - -
Mo, 20.08. 14:00 1440 m 8/8 8/8 - - -
Mo, 20.08. 8:00 - 8/8 - - - -
Mo, 20.08. 2:00 3300 m 3/8 3/8 - - -
So, 19.08. 20:00 - 8/8 - - - -
So, 19.08. 14:00 10500 m 2/8 0/8 - - -
Ortszeit Bedeckungsgrad in Achtel und Wolkenuntergrenze
Di, 21.08. 12:30 2(1260m) 3(1440m)
Di, 21.08. 12:20 2(1260m) 3(1440m)
Di, 21.08. 12:10 3(1170m) 4(1350m)
Di, 21.08. 12:00 7(1140m) 9 9
Di, 21.08. 11:50 7(1140m)
Di, 21.08. 11:40 7(1170m) 7(1380m)
Di, 21.08. 11:30 6(1230m) 7(1440m)
Di, 21.08. 11:00 5(1020m) 7(1230m) 7(1290m)
Di, 21.08. 10:30 5(870m) 7(1080m)
Di, 21.08. 10:00 1(750m) 4(990m)
Di, 21.08. 9:30 1(1500m) 2(5100m)
Ortszeit Luftdruck NN (hPa) Tendenz (hPa in 3 Std.)
Di, 21.08. 8:00 1021 + 1,3
Di, 21.08. 2:00 1019 + 1,5
Mo, 20.08. 20:00 1016 0,0
Mo, 20.08. 14:00 1016 + 0,3
Mo, 20.08. 8:00 1016 + 0,8
Mo, 20.08. 2:00 1015 - 0,8
So, 19.08. 20:00 1016 - 1,4
So, 19.08. 14:00 1019 - 1,7
Ortszeit Luftdruck NN (hPa) Tendenz (hPa in 3 Std.)
Di, 21.08. 12:30 1022 + 0,3
Di, 21.08. 12:20 1022 keine Meldung
Di, 21.08. 12:10 1022 keine Meldung
Di, 21.08. 12:00 1022 + 0,4
Di, 21.08. 11:50 1022 keine Meldung
Di, 21.08. 11:40 1022 keine Meldung
Di, 21.08. 11:30 1022 + 0,8
Di, 21.08. 11:00 1022 + 1,1
Di, 21.08. 10:30 1022 + 1,3
Di, 21.08. 10:00 1022 + 1,3
Di, 21.08. 9:30 1021 + 1,5
Ortszeit Schneehöhe (cm)
Di, 21.08. 8:00 -
Di, 21.08. 2:00 -
Mo, 20.08. 20:00 -
Mo, 20.08. 14:00 -
Mo, 20.08. 8:00 -
Mo, 20.08. 2:00 -
So, 19.08. 20:00 -
So, 19.08. 14:00 -
Ortszeit Schneehöhe (cm)
Di, 21.08. 12:30 -
Di, 21.08. 12:20 -
Di, 21.08. 12:10 -
Di, 21.08. 12:00 -
Di, 21.08. 11:50 -
Di, 21.08. 11:40 -
Di, 21.08. 11:30 -
Di, 21.08. 11:00 -
Di, 21.08. 10:30 -
Di, 21.08. 10:00 -
Di, 21.08. 9:30 -
Link zu dieser Seite / Seite empfehlen

Das Wetter in ...